Cochise — WDD8952 — position and weather

sailwx.info

Track history (hours):
 
Tides and Currents Weather Stations Pressure Air Temp Water Temp Dewpoint Dewpoint Depression Visibility Wind Speed Wind Dir Waves Ship Positions

Cochise

Owner: Sause Bros, Coos Bay, OR. More information available from US FCC via Universal Licensing System and Coast Guard Vessel Documentation Center.

Last reported at 2016-Aug-25 08:24 UTC. Time now 2016-Aug-28 00:31 UTC.
Position N 38°29' W 123°35'.

Length 32 m; draft 6.8 m.

Type: Towing. MMSI: 367304990.

Date/timePositionNaut miles runAvg speedWind from/ knotsBaromVisibWave heightAir tempDewpointWater temp
2016-Aug-25 08:24N 38°29' W 123°35'6 7.1
2016-Aug-25 07:33N 38°23' W 123°31'8 8.5
2016-Aug-25 06:33N 38°16' W 123°26'17 8.3
2016-Aug-25 04:33N 38°03' W 123°13'9 8.8
2016-Aug-25 03:34N 37°57' W 123°04'9 9.2
2016-Aug-25 02:34N 37°53' W 122°54'9 9.1
2016-Aug-25 01:33N 37°48' W 122°44'8 8.5
2016-Aug-25 00:33N 37°47' W 122°34'8 7.5
2016-Aug-24 23:33N 37°50' W 122°25'5 5.0
2016-Aug-24 22:33N 37°55' W 122°25'0 0.2
2016-Aug-24 21:29N 37°55' W 122°25'0 0.0
2016-Aug-24 20:29N 37°55' W 122°25'0 0.0
2016-Aug-24 19:32N 37°55' W 122°25'0 0.0
2016-Aug-24 18:23N 37°55' W 122°25'0 0.0
2016-Aug-24 16:29N 37°55' W 122°25'0 0.0
2016-Aug-24 15:17N 37°55' W 122°25'0 0.0
2016-Aug-24 14:26N 37°55' W 122°25'0 0.0
2016-Aug-24 13:29N 37°55' W 122°25'0 0.0
2016-Aug-24 12:29N 37°55' W 122°25'0 0.0
2016-Aug-24 11:29N 37°55' W 122°25'0 0.0
2016-Aug-24 10:29N 37°55' W 122°25'0 0.4
2016-Aug-24 09:33N 37°55' W 122°25'1 0.8
2016-Aug-24 08:30N 37°55' W 122°26'0 0.0
2016-Aug-24 07:30N 37°55' W 122°26'0 0.0
2016-Aug-24 06:30N 37°55' W 122°26'0 0.0
2016-Aug-24 04:30N 37°55' W 122°26'0 0.0
2016-Aug-24 03:33N 37°55' W 122°26'0 0.0
2016-Aug-24 02:33N 37°55' W 122°26'0 0.1
2016-Aug-24 01:33N 37°55' W 122°26'0 0.0
2016-Aug-24 00:33N 37°55' W 122°26'0 0.3
2016-Aug-23 23:33N 37°55' W 122°26'8 8.1
2016-Aug-23 22:33N 38°02' W 122°21'12 0.6
2016-Aug-23 02:28N 38°03' W 122°06'5 3.4
2016-Aug-23 01:07N 38°03' W 122°12'3 4.9
2016-Aug-23 00:33N 38°04' W 122°15'7 7.1
2016-Aug-22 23:34N 38°01' W 122°24'5 4.9
2016-Aug-22 22:26N 37°55' W 122°25'0 0.1
2016-Aug-22 21:34N 37°55' W 122°25'0 0.3
2016-Aug-22 20:32N 37°55' W 122°25'0 0.0
2016-Aug-22 19:32N 37°55' W 122°25'0 0.0
2016-Aug-22 18:32N 37°55' W 122°25'0 0.0
2016-Aug-22 17:32N 37°55' W 122°25'0 0.0
2016-Aug-22 16:20N 37°55' W 122°25'0 0.0
2016-Aug-22 15:26N 37°55' W 122°25'0 0.0
2016-Aug-22 14:20N 37°55' W 122°25'0 0.0
2016-Aug-22 13:32N 37°55' W 122°25'0 0.0
2016-Aug-22 12:32N 37°55' W 122°25'0 0.0
2016-Aug-22 11:32N 37°55' W 122°25'0 0.0
2016-Aug-22 10:32N 37°55' W 122°25'0 0.0
2016-Aug-22 09:26N 37°55' W 122°25'0 0.0
2016-Aug-22 08:32N 37°55' W 122°25'0 0.0
2016-Aug-22 07:32N 37°55' W 122°25'0 0.0
2016-Aug-22 06:26N 37°55' W 122°25'0 0.0
2016-Aug-22 05:23N 37°55' W 122°25'0 0.0
2016-Aug-22 04:29N 37°55' W 122°25'0 0.0
2016-Aug-22 03:32N 37°55' W 122°25'0 0.3
2016-Aug-22 02:33N 37°55' W 122°25'2 1.9
2016-Aug-22 01:33N 37°54' W 122°26'6 5.8
2016-Aug-22 00:33N 37°48' W 122°23'2 1.9
2016-Aug-21 23:33N 37°46' W 122°23'0 0.0
2016-Aug-21 22:33N 37°46' W 122°23'0 0.0
2016-Aug-21 21:33N 37°46' W 122°23'0 0.0
2016-Aug-21 20:33N 37°46' W 122°23'0 0.0
2016-Aug-21 19:33N 37°46' W 122°23'0 0.0
2016-Aug-21 18:33N 37°46' W 122°23'0 0.0
2016-Aug-21 17:33N 37°46' W 122°23'0 0.0
2016-Aug-21 16:33N 37°46' W 122°23'0 0.0
2016-Aug-21 15:33N 37°46' W 122°23'0 0.0
2016-Aug-21 14:33N 37°46' W 122°23'0 0.0
2016-Aug-21 13:33N 37°46' W 122°23'0 0.0
2016-Aug-21 12:33N 37°46' W 122°23'0 0.0
2016-Aug-21 11:33N 37°46' W 122°23'0 0.0
2016-Aug-21 10:33N 37°46' W 122°23'0 0.0
2016-Aug-21 09:33N 37°46' W 122°23'0 0.0
2016-Aug-21 08:33N 37°46' W 122°23'0 0.0
2016-Aug-21 07:33N 37°46' W 122°23'0 0.0
2016-Aug-21 06:33N 37°46' W 122°23'0 0.0
2016-Aug-21 05:33N 37°46' W 122°23'0 0.0
2016-Aug-21 04:33N 37°46' W 122°23'0 0.0
2016-Aug-21 03:33N 37°46' W 122°23'0 0.0
2016-Aug-21 02:33N 37°46' W 122°23'0 0.0
2016-Aug-21 01:33N 37°46' W 122°23'0 0.0
2016-Aug-21 00:33N 37°46' W 122°23'0 0.0
2016-Aug-20 23:33N 37°46' W 122°23'0 0.0
2016-Aug-20 22:33N 37°46' W 122°23'0 0.0
2016-Aug-20 21:33N 37°46' W 122°23'0 0.0
2016-Aug-20 20:30N 37°46' W 122°23'0 0.0
2016-Aug-20 19:33N 37°46' W 122°23'0 0.0
2016-Aug-20 18:30N 37°46' W 122°23'0 0.0
2016-Aug-20 17:33N 37°46' W 122°23'0 0.0
2016-Aug-20 16:33N 37°46' W 122°23'0 0.0
2016-Aug-20 15:33N 37°46' W 122°23'0 0.0
2016-Aug-20 14:33N 37°46' W 122°23'0 0.0
2016-Aug-20 13:33N 37°46' W 122°23'0 0.0
2016-Aug-20 12:33N 37°46' W 122°23'0 0.0
2016-Aug-20 11:33N 37°46' W 122°23'0 0.0
2016-Aug-20 10:33N 37°46' W 122°23'0 0.0
2016-Aug-20 09:30N 37°46' W 122°23'0 0.0
2016-Aug-20 08:33N 37°46' W 122°23'0 0.0
2016-Aug-20 07:33N 37°46' W 122°23'0 0.0
2016-Aug-20 06:33N 37°46' W 122°23'0 0.0
2016-Aug-20 05:33N 37°46' W 122°23'0 0.0
2016-Aug-20 04:33N 37°46' W 122°23'0 0.0
2016-Aug-20 03:33N 37°46' W 122°23'0 0.0
2016-Aug-20 02:33N 37°46' W 122°23'0 0.0
2016-Aug-20 01:33N 37°46' W 122°23'0 0.0
2016-Aug-20 00:33N 37°46' W 122°23'0 0.0
2016-Aug-19 23:33N 37°46' W 122°23'0 0.0
2016-Aug-19 22:33N 37°46' W 122°23'0 0.0
2016-Aug-19 21:33N 37°46' W 122°23'0 0.0
2016-Aug-19 20:33N 37°46' W 122°23'0 0.0
2016-Aug-19 19:33N 37°46' W 122°23'0 0.0
2016-Aug-19 18:33N 37°46' W 122°23'0 0.0
2016-Aug-19 17:33N 37°46' W 122°23'0 0.0
2016-Aug-19 16:33N 37°46' W 122°23'0 0.0
2016-Aug-19 15:33N 37°46' W 122°23'0 0.0
2016-Aug-19 14:33N 37°46' W 122°23'0 0.0
2016-Aug-19 13:33N 37°46' W 122°23'0 0.0
2016-Aug-19 12:33N 37°46' W 122°23'0 0.0
2016-Aug-19 11:33N 37°46' W 122°23'0 0.0
2016-Aug-19 10:33N 37°46' W 122°23'0 0.0
2016-Aug-19 09:33N 37°46' W 122°23'0 0.0
2016-Aug-19 08:33N 37°46' W 122°23'0 0.0
2016-Aug-19 07:33N 37°46' W 122°23'0 0.0
2016-Aug-19 06:33N 37°46' W 122°23'0 0.0
2016-Aug-19 05:33N 37°46' W 122°23'0 0.0
2016-Aug-19 04:33N 37°46' W 122°23'0 0.0
2016-Aug-19 03:33N 37°46' W 122°23'0 0.0
2016-Aug-19 02:33N 37°46' W 122°23'0 0.0
2016-Aug-19 01:33N 37°46' W 122°23'0 0.0
2016-Aug-19 00:33N 37°46' W 122°23'0 0.0
2016-Aug-18 23:33N 37°46' W 122°23'0 0.0
2016-Aug-18 22:33N 37°46' W 122°23'2 1.8
2016-Aug-18 21:33N 37°48' W 122°23'7 6.8
2016-Aug-18 20:33N 37°55' W 122°22'0 0.0
2016-Aug-18 19:28N 37°55' W 122°22'0 0.0
2016-Aug-18 18:28N 37°55' W 122°22'0 0.0
2016-Aug-18 17:13N 37°55' W 122°22'0 0.0
2016-Aug-18 16:31N 37°55' W 122°22'0 0.0
2016-Aug-18 15:31N 37°55' W 122°22'1 1.1
2016-Aug-18 14:33N 37°54' W 122°23'8 7.8
2016-Aug-18 13:33N 37°46' W 122°23'0 0.0
2016-Aug-18 12:31N 37°46' W 122°23'0 0.0
2016-Aug-18 11:31N 37°46' W 122°23'0 0.0
2016-Aug-18 10:31N 37°46' W 122°23'0 0.0
2016-Aug-18 09:31N 37°46' W 122°23'0 0.0
2016-Aug-18 08:28N 37°46' W 122°23'0 0.0
2016-Aug-18 07:31N 37°46' W 122°23'0 0.3
2016-Aug-18 06:33N 37°47' W 122°23'9 8.8
2016-Aug-18 05:34N 37°47' W 122°34'1110.7
2016-Aug-18 04:33N 37°47' W 122°47'1110.6
2016-Aug-18 03:33N 37°52' W 122°59'1110.6
2016-Aug-18 02:33N 37°57' W 123°11'1010.3
2016-Aug-18 01:33N 38°05' W 123°20'1110.6
2016-Aug-18 00:33N 38°14' W 123°27'1010.1
2016-Aug-17 23:33N 38°23' W 123°33'1110.2
2016-Aug-17 22:31N 38°32' W 123°40'1010.1
2016-Aug-17 21:32N 38°41' W 123°46'  
Track history (hours):
 
Tides and Currents Weather Stations Pressure Air Temp Water Temp Dewpoint Dewpoint Depression Visibility Wind Speed Wind Dir Waves Ship Positions

Cochise

Owner: Sause Bros, Coos Bay, OR. More information available from US FCC via Universal Licensing System and Coast Guard Vessel Documentation Center.

Last reported at 2016-Aug-25 08:24 UTC. Time now 2016-Aug-28 00:31 UTC.
Position N 38°29' W 123°35'.

Length 32 m; draft 6.8 m.

Type: Towing. MMSI: 367304990.

Date/timePositionNaut miles runAvg speedWind from/ knotsBaromVisibWave heightAir tempDewpointWater temp
2016-Aug-25 08:24N 38°29' W 123°35'6 7.1
2016-Aug-25 07:33N 38°23' W 123°31'8 8.5
2016-Aug-25 06:33N 38°16' W 123°26'17 8.3
2016-Aug-25 04:33N 38°03' W 123°13'9 8.8
2016-Aug-25 03:34N 37°57' W 123°04'9 9.2
2016-Aug-25 02:34N 37°53' W 122°54'9 9.1
2016-Aug-25 01:33N 37°48' W 122°44'8 8.5
2016-Aug-25 00:33N 37°47' W 122°34'8 7.5
2016-Aug-24 23:33N 37°50' W 122°25'5 5.0
2016-Aug-24 22:33N 37°55' W 122°25'0 0.2
2016-Aug-24 21:29N 37°55' W 122°25'0 0.0
2016-Aug-24 20:29N 37°55' W 122°25'0 0.0
2016-Aug-24 19:32N 37°55' W 122°25'0 0.0
2016-Aug-24 18:23N 37°55' W 122°25'0 0.0
2016-Aug-24 16:29N 37°55' W 122°25'0 0.0
2016-Aug-24 15:17N 37°55' W 122°25'0 0.0
2016-Aug-24 14:26N 37°55' W 122°25'0 0.0
2016-Aug-24 13:29N 37°55' W 122°25'0 0.0
2016-Aug-24 12:29N 37°55' W 122°25'0 0.0
2016-Aug-24 11:29N 37°55' W 122°25'0 0.0
2016-Aug-24 10:29N 37°55' W 122°25'0 0.4
2016-Aug-24 09:33N 37°55' W 122°25'1 0.8
2016-Aug-24 08:30N 37°55' W 122°26'0 0.0
2016-Aug-24 07:30N 37°55' W 122°26'0 0.0
2016-Aug-24 06:30N 37°55' W 122°26'0 0.0
2016-Aug-24 04:30N 37°55' W 122°26'0 0.0
2016-Aug-24 03:33N 37°55' W 122°26'0 0.0
2016-Aug-24 02:33N 37°55' W 122°26'0 0.1
2016-Aug-24 01:33N 37°55' W 122°26'0 0.0
2016-Aug-24 00:33N 37°55' W 122°26'0 0.3
2016-Aug-23 23:33N 37°55' W 122°26'8 8.1
2016-Aug-23 22:33N 38°02' W 122°21'12 0.6
2016-Aug-23 02:28N 38°03' W 122°06'5 3.4
2016-Aug-23 01:07N 38°03' W 122°12'3 4.9
2016-Aug-23 00:33N 38°04' W 122°15'7 7.1
2016-Aug-22 23:34N 38°01' W 122°24'5 4.9
2016-Aug-22 22:26N 37°55' W 122°25'0 0.1
2016-Aug-22 21:34N 37°55' W 122°25'0 0.3
2016-Aug-22 20:32N 37°55' W 122°25'0 0.0
2016-Aug-22 19:32N 37°55' W 122°25'0 0.0
2016-Aug-22 18:32N 37°55' W 122°25'0 0.0
2016-Aug-22 17:32N 37°55' W 122°25'0 0.0
2016-Aug-22 16:20N 37°55' W 122°25'0 0.0
2016-Aug-22 15:26N 37°55' W 122°25'0 0.0
2016-Aug-22 14:20N 37°55' W 122°25'0 0.0
2016-Aug-22 13:32N 37°55' W 122°25'0 0.0
2016-Aug-22 12:32N 37°55' W 122°25'0 0.0
2016-Aug-22 11:32N 37°55' W 122°25'0 0.0
2016-Aug-22 10:32N 37°55' W 122°25'0 0.0
2016-Aug-22 09:26N 37°55' W 122°25'0 0.0
2016-Aug-22 08:32N 37°55' W 122°25'0 0.0
2016-Aug-22 07:32N 37°55' W 122°25'0 0.0
2016-Aug-22 06:26N 37°55' W 122°25'0 0.0
2016-Aug-22 05:23N 37°55' W 122°25'0 0.0
2016-Aug-22 04:29N 37°55' W 122°25'0 0.0
2016-Aug-22 03:32N 37°55' W 122°25'0 0.3
2016-Aug-22 02:33N 37°55' W 122°25'2 1.9
2016-Aug-22 01:33N 37°54' W 122°26'6 5.8
2016-Aug-22 00:33N 37°48' W 122°23'2 1.9
2016-Aug-21 23:33N 37°46' W 122°23'0 0.0
2016-Aug-21 22:33N 37°46' W 122°23'0 0.0
2016-Aug-21 21:33N 37°46' W 122°23'0 0.0
2016-Aug-21 20:33N 37°46' W 122°23'0 0.0
2016-Aug-21 19:33N 37°46' W 122°23'0 0.0
2016-Aug-21 18:33N 37°46' W 122°23'0 0.0
2016-Aug-21 17:33N 37°46' W 122°23'0 0.0
2016-Aug-21 16:33N 37°46' W 122°23'0 0.0
2016-Aug-21 15:33N 37°46' W 122°23'0 0.0
2016-Aug-21 14:33N 37°46' W 122°23'0 0.0
2016-Aug-21 13:33N 37°46' W 122°23'0 0.0
2016-Aug-21 12:33N 37°46' W 122°23'0 0.0
2016-Aug-21 11:33N 37°46' W 122°23'0 0.0
2016-Aug-21 10:33N 37°46' W 122°23'0 0.0
2016-Aug-21 09:33N 37°46' W 122°23'0 0.0
2016-Aug-21 08:33N 37°46' W 122°23'0 0.0
2016-Aug-21 07:33N 37°46' W 122°23'0 0.0
2016-Aug-21 06:33N 37°46' W 122°23'0 0.0
2016-Aug-21 05:33N 37°46' W 122°23'0 0.0
2016-Aug-21 04:33N 37°46' W 122°23'0 0.0
2016-Aug-21 03:33N 37°46' W 122°23'0 0.0
2016-Aug-21 02:33N 37°46' W 122°23'0 0.0
2016-Aug-21 01:33N 37°46' W 122°23'0 0.0
2016-Aug-21 00:33N 37°46' W 122°23'0 0.0
2016-Aug-20 23:33N 37°46' W 122°23'0 0.0
2016-Aug-20 22:33N 37°46' W 122°23'0 0.0
2016-Aug-20 21:33N 37°46' W 122°23'0 0.0
2016-Aug-20 20:30N 37°46' W 122°23'0 0.0
2016-Aug-20 19:33N 37°46' W 122°23'0 0.0
2016-Aug-20 18:30N 37°46' W 122°23'0 0.0
2016-Aug-20 17:33N 37°46' W 122°23'0 0.0
2016-Aug-20 16:33N 37°46' W 122°23'0 0.0
2016-Aug-20 15:33N 37°46' W 122°23'0 0.0
2016-Aug-20 14:33N 37°46' W 122°23'0 0.0
2016-Aug-20 13:33N 37°46' W 122°23'0 0.0
2016-Aug-20 12:33N 37°46' W 122°23'0 0.0
2016-Aug-20 11:33N 37°46' W 122°23'0 0.0
2016-Aug-20 10:33N 37°46' W 122°23'0 0.0
2016-Aug-20 09:30N 37°46' W 122°23'0 0.0
2016-Aug-20 08:33N 37°46' W 122°23'0 0.0
2016-Aug-20 07:33N 37°46' W 122°23'0 0.0
2016-Aug-20 06:33N 37°46' W 122°23'0 0.0
2016-Aug-20 05:33N 37°46' W 122°23'0 0.0
2016-Aug-20 04:33N 37°46' W 122°23'0 0.0
2016-Aug-20 03:33N 37°46' W 122°23'0 0.0
2016-Aug-20 02:33N 37°46' W 122°23'0 0.0
2016-Aug-20 01:33N 37°46' W 122°23'0 0.0
2016-Aug-20 00:33N 37°46' W 122°23'0 0.0
2016-Aug-19 23:33N 37°46' W 122°23'0 0.0
2016-Aug-19 22:33N 37°46' W 122°23'0 0.0
2016-Aug-19 21:33N 37°46' W 122°23'0 0.0
2016-Aug-19 20:33N 37°46' W 122°23'0 0.0
2016-Aug-19 19:33N 37°46' W 122°23'0 0.0
2016-Aug-19 18:33N 37°46' W 122°23'0 0.0
2016-Aug-19 17:33N 37°46' W 122°23'0 0.0
2016-Aug-19 16:33N 37°46' W 122°23'0 0.0
2016-Aug-19 15:33N 37°46' W 122°23'0 0.0
2016-Aug-19 14:33N 37°46' W 122°23'0 0.0
2016-Aug-19 13:33N 37°46' W 122°23'0 0.0
2016-Aug-19 12:33N 37°46' W 122°23'0 0.0
2016-Aug-19 11:33N 37°46' W 122°23'0 0.0
2016-Aug-19 10:33N 37°46' W 122°23'0 0.0
2016-Aug-19 09:33N 37°46' W 122°23'0 0.0
2016-Aug-19 08:33N 37°46' W 122°23'0 0.0
2016-Aug-19 07:33N 37°46' W 122°23'0 0.0
2016-Aug-19 06:33N 37°46' W 122°23'0 0.0
2016-Aug-19 05:33N 37°46' W 122°23'0 0.0
2016-Aug-19 04:33N 37°46' W 122°23'0 0.0
2016-Aug-19 03:33N 37°46' W 122°23'0 0.0
2016-Aug-19 02:33N 37°46' W 122°23'0 0.0
2016-Aug-19 01:33N 37°46' W 122°23'0 0.0
2016-Aug-19 00:33N 37°46' W 122°23'0 0.0
2016-Aug-18 23:33N 37°46' W 122°23'0 0.0
2016-Aug-18 22:33N 37°46' W 122°23'2 1.8
2016-Aug-18 21:33N 37°48' W 122°23'7 6.8
2016-Aug-18 20:33N 37°55' W 122°22'0 0.0
2016-Aug-18 19:28N 37°55' W 122°22'0 0.0
2016-Aug-18 18:28N 37°55' W 122°22'0 0.0
2016-Aug-18 17:13N 37°55' W 122°22'0 0.0
2016-Aug-18 16:31N 37°55' W 122°22'0 0.0
2016-Aug-18 15:31N 37°55' W 122°22'1 1.1
2016-Aug-18 14:33N 37°54' W 122°23'8 7.8
2016-Aug-18 13:33N 37°46' W 122°23'0 0.0
2016-Aug-18 12:31N 37°46' W 122°23'0 0.0
2016-Aug-18 11:31N 37°46' W 122°23'0 0.0
2016-Aug-18 10:31N 37°46' W 122°23'0 0.0
2016-Aug-18 09:31N 37°46' W 122°23'0 0.0
2016-Aug-18 08:28N 37°46' W 122°23'0 0.0
2016-Aug-18 07:31N 37°46' W 122°23'0 0.3
2016-Aug-18 06:33N 37°47' W 122°23'9 8.8
2016-Aug-18 05:34N 37°47' W 122°34'1110.7
2016-Aug-18 04:33N 37°47' W 122°47'1110.6
2016-Aug-18 03:33N 37°52' W 122°59'1110.6
2016-Aug-18 02:33N 37°57' W 123°11'1010.3
2016-Aug-18 01:33N 38°05' W 123°20'1110.6
2016-Aug-18 00:33N 38°14' W 123°27'1010.1
2016-Aug-17 23:33N 38°23' W 123°33'1110.2
2016-Aug-17 22:31N 38°32' W 123°40'1010.1
2016-Aug-17 21:32N 38°41' W 123°46'  

Dump ship's entire track history